CheckWX is a tool to help pilots better visualize weather data.  It is not intended as a substitute for an official pre-flight weather briefing.

03:22:49 UTC

KARG METAR
Walnut Ridge Regional Airport
Walnut Ridge, Arkansas, USA
Current

27 mins ago

KARG 130256Z AUTO 19006KT 10SM CLR 04/M01 A3014 RMK AO2 SLP209 T00391006 58014
Observed
Dec-13 @ 02:56 UTC
Wind
  • 190° at 6 KTS
Visibility
10 SM
Flight Rules
VFR
Cloud Levels
  • Clear skies
Temperature
C / 39°F
Dewpoint
-1°C / 30°F
Humidity
70%
Altimeter
30.14" Hg
Pressure
1020.62 hPa
Previous

1 hour ago

KARG 130156Z AUTO 16006KT 10SM CLR 03/M01 A3016 RMK AO2 SLP218 T00281006
Observed
Dec-13 @ 01:56 UTC
Wind
  • 160° at 6 KTS
Visibility
10 SM
Flight Rules
VFR
Cloud Levels
  • Clear skies
Temperature
C / 37°F
Dewpoint
-1°C / 30°F
Humidity
75%
Altimeter
30.16" Hg
Pressure
1021.32 hPa
Previous

2 hours ago

KARG 130056Z AUTO 14006KT 10SM CLR 04/00 A3017 RMK AO2 SLP222 T00390000
Observed
Dec-13 @ 00:56 UTC
Wind
  • 140° at 6 KTS
Visibility
10 SM
Flight Rules
VFR
Cloud Levels
  • Clear skies
Temperature
C / 39°F
Dewpoint
C / 32°F
Humidity
75%
Altimeter
30.17" Hg
Pressure
1021.72 hPa